Airfield :
LOGIN :

Register | Disclaimer

   EN    FR    IT 

 










Legend :    VFR   Marginal VFR   IFR   Intensive IFR   Very Intensive IFR
Visi :
Ceiling :
>= 8 km
>= 3000ft
5 to 8 km
1000 to 3000 ft
1500m to 5 km
500 to 1000 ft
800 to 1500m
200 to 500 ft
< 800m
< 200 ft
Symbols :   Thunderstorms  Fog  Heavy snow  Heavy precipitations  Wind > 20 kt
SIGMETs :     Misc.  Thunderstorms  Icing  Turbulence  Mountain Waves  Volcanic Ashes







- Airport Elevation : 194 ft
- IATA code : LME
- Download approach charts


LFRM - Le Mans

CURRENT METAR :
  • 212230Z AUTO 18007KT 150V210 CAVOK 17/11 Q1010

EXPIRED METARs :
  • 212200Z AUTO 19006KT 150V220 CAVOK 18/12 Q1010
  • 212130Z AUTO 18006KT 150V230 CAVOK 18/11 Q1010
  • 212100Z AUTO 19006KT 160V220 CAVOK 19/10 Q1010 NOSIG
  • 212030Z AUTO 19006KT 160V230 CAVOK 19/11 Q1010 NOSIG
  • 212000Z AUTO 20007KT 170V240 CAVOK 20/11 Q1010 NOSIG

TAF TAF LFRM
Valid from the 21 at 18:00 until the 22 at 03:00 UTC


211700Z 2118/2203 21010KT 9999 SCT040
TEMPO 2118/2121 21010G20KT BKN035
No reported NOTAMs for that airfield.



MET'MAP, your aeronautical weather chart ! - Copyright ORBIFLY December 2007 - Disclaimer

ORBIFLY MET'MAP TEAM :

Programming & Development : Alexandra Zaïnal
Concept & Development : Baudouin d'Aumeries
Co-Development & Prog : Marc-Olivier Méhu
Technical & hardware support : Manuel Goepfert

Contact : metmap@orbifly.com




SOURCES & CREDITS :

   NOAA